sensor_id;sensor_type;location;lat;lon;timestamp;pressure;altitude;pressure_sealevel;temperature;humidity
62779;BME280;48821;48.796;2.396;2023-01-26T09:44:30;102347.06;;;4.90;67.28
62779;BME280;48821;48.796;2.396;2023-01-26T12:24:09;102299.38;;;5.58;68.40
62779;BME280;48821;48.796;2.396;2023-01-26T13:02:45;102243.66;;;5.51;70.03
62779;BME280;48821;48.796;2.396;2023-01-26T16:43:21;102292.28;;;6.15;74.14
62779;BME280;48821;48.796;2.396;2023-01-26T17:03:23;102304.63;;;6.32;74.20
62779;BME280;48821;48.796;2.396;2023-01-26T17:05:02;102311.63;;;6.36;74.23
62779;BME280;48821;48.796;2.396;2023-01-26T18:06:35;102324.38;;;6.98;71.73
62779;BME280;48821;48.796;2.396;2023-01-26T18:10:10;102320.88;;;6.97;71.63
62779;BME280;48821;48.796;2.396;2023-01-26T18:42:52;102320.09;;;7.09;66.70
62779;BME280;48821;48.796;2.396;2023-01-26T18:44:49;102325.34;;;7.13;65.81
62779;BME280;48821;48.796;2.396;2023-01-26T18:48:20;102321.88;;;7.15;66.12
62779;BME280;48821;48.796;2.396;2023-01-26T18:49:52;102324.47;;;7.12;65.60
62779;BME280;48821;48.796;2.396;2023-01-26T18:51:36;102328.84;;;7.15;66.02
62779;BME280;48821;48.796;2.396;2023-01-26T18:53:26;102319.25;;;7.12;65.93
62779;BME280;48821;48.796;2.396;2023-01-26T18:54:53;102321.00;;;7.13;64.59
62779;BME280;48821;48.796;2.396;2023-01-26T18:56:37;102328.00;;;7.17;64.99
62779;BME280;48821;48.796;2.396;2023-01-26T18:57:58;102317.50;;;7.14;65.17
62779;BME280;48821;48.796;2.396;2023-01-26T18:59:19;102324.47;;;7.14;65.12
62779;BME280;48821;48.796;2.396;2023-01-26T19:00:33;102321.88;;;7.15;65.04
62779;BME280;48821;48.796;2.396;2023-01-26T19:01:49;102322.75;;;7.13;65.49
62779;BME280;48821;48.796;2.396;2023-01-26T19:03:05;102327.09;;;7.14;63.48
62779;BME280;48821;48.796;2.396;2023-01-26T19:04:23;102319.25;;;7.12;64.46
62779;BME280;48821;48.796;2.396;2023-01-26T19:05:47;102321.84;;;7.12;64.90
62779;BME280;48821;48.796;2.396;2023-01-26T19:09:19;102320.97;;;7.12;65.21
62779;BME280;48821;48.796;2.396;2023-01-26T19:11:11;102324.47;;;7.12;65.38
62779;BME280;48821;48.796;2.396;2023-01-26T19:16:40;102325.34;;;7.14;64.90
62779;BME280;48821;48.796;2.396;2023-01-26T19:18:40;102320.97;;;7.10;64.60
62779;BME280;48821;48.796;2.396;2023-01-26T19:20:19;102324.47;;;7.14;64.57
62779;BME280;48821;48.796;2.396;2023-01-26T19:26:52;102319.28;;;7.15;64.67
62779;BME280;48821;48.796;2.396;2023-01-26T19:28:06;102313.16;;;7.16;65.07
62779;BME280;48821;48.796;2.396;2023-01-26T19:29:34;102307.97;;;7.21;65.22
62779;BME280;48821;48.796;2.396;2023-01-26T19:30:46;102314.06;;;7.22;64.46
62779;BME280;48821;48.796;2.396;2023-01-26T19:31:57;102317.56;;;7.24;64.70
62779;BME280;48821;48.796;2.396;2023-01-26T19:33:08;102320.22;;;7.25;64.61
62779;BME280;48821;48.796;2.396;2023-01-26T19:34:34;102314.09;;;7.25;64.14
62779;BME280;48821;48.796;2.396;2023-01-26T19:35:45;102321.94;;;7.26;64.39
62779;BME280;48821;48.796;2.396;2023-01-26T19:36:56;102317.56;;;7.24;64.54
62779;BME280;48821;48.796;2.396;2023-01-26T19:38:08;102311.47;;;7.23;64.05
62779;BME280;48821;48.796;2.396;2023-01-26T19:39:19;102318.44;;;7.23;64.06
62779;BME280;48821;48.796;2.396;2023-01-26T19:40:33;102311.47;;;7.23;64.35
62779;BME280;48821;48.796;2.396;2023-01-26T19:41:46;102313.22;;;7.23;64.39
62779;BME280;48821;48.796;2.396;2023-01-26T19:42:59;102323.69;;;7.24;64.39
62779;BME280;48821;48.796;2.396;2023-01-26T19:44:12;102316.69;;;7.22;64.54
62779;BME280;48821;48.796;2.396;2023-01-26T19:45:22;102315.81;;;7.19;64.36
62779;BME280;48821;48.796;2.396;2023-01-26T19:46:34;102315.81;;;7.18;64.30
62779;BME280;48821;48.796;2.396;2023-01-26T19:47:44;102312.31;;;7.17;63.87
62779;BME280;48821;48.796;2.396;2023-01-26T19:48:56;102319.28;;;7.15;64.25
62779;BME280;48821;48.796;2.396;2023-01-26T19:50:07;102320.13;;;7.14;63.99
62779;BME280;48821;48.796;2.396;2023-01-26T19:51:23;102324.47;;;7.14;64.48
62779;BME280;48821;48.796;2.396;2023-01-26T19:52:34;102320.09;;;7.09;64.55
62779;BME280;48821;48.796;2.396;2023-01-26T19:53:48;102318.38;;;7.08;64.72
62779;BME280;48821;48.796;2.396;2023-01-26T19:54:58;102320.94;;;7.05;64.71
62779;BME280;48821;48.796;2.396;2023-01-26T19:56:16;102312.19;;;7.02;64.87
62779;BME280;48821;48.796;2.396;2023-01-26T19:57:30;102313.94;;;7.01;64.94
62779;BME280;48821;48.796;2.396;2023-01-26T19:58:42;102312.19;;;7.02;64.49
62779;BME280;48821;48.796;2.396;2023-01-26T19:59:53;102320.91;;;7.02;64.62
62779;BME280;48821;48.796;2.396;2023-01-26T20:01:10;102315.69;;;7.01;64.98
62779;BME280;48821;48.796;2.396;2023-01-26T20:02:21;102316.56;;;7.03;64.73
62779;BME280;48821;48.796;2.396;2023-01-26T20:03:33;102322.66;;;7.02;64.84
62779;BME280;48821;48.796;2.396;2023-01-26T20:04:43;102319.19;;;7.01;64.85
62779;BME280;48821;48.796;2.396;2023-01-26T20:05:54;102321.75;;;7.00;65.05
62779;BME280;48821;48.796;2.396;2023-01-26T20:07:05;102320.91;;;7.01;65.01
62779;BME280;48821;48.796;2.396;2023-01-26T20:08:17;102319.16;;;7.00;65.41
62779;BME280;48821;48.796;2.396;2023-01-26T20:09:31;102318.28;;;6.99;65.14
62779;BME280;48821;48.796;2.396;2023-01-26T20:10:42;102319.16;;;7.00;65.20
62779;BME280;48821;48.796;2.396;2023-01-26T20:11:53;102319.16;;;7.00;65.07
62779;BME280;48821;48.796;2.396;2023-01-26T20:13:04;102319.16;;;7.00;65.46
62779;BME280;48821;48.796;2.396;2023-01-26T20:14:15;102321.78;;;7.01;65.38
62779;BME280;48821;48.796;2.396;2023-01-26T20:15:34;102328.75;;;7.02;65.47
62779;BME280;48821;48.796;2.396;2023-01-26T20:16:48;102323.53;;;7.01;65.76
62779;BME280;48821;48.796;2.396;2023-01-26T20:18:07;102315.66;;;6.99;65.80
62779;BME280;48821;48.796;2.396;2023-01-26T20:19:18;102320.03;;;7.02;65.77
62779;BME280;48821;48.796;2.396;2023-01-26T20:20:40;102310.44;;;6.97;65.44
62779;BME280;48821;48.796;2.396;2023-01-26T20:21:54;102312.19;;;6.98;65.71
62779;BME280;48821;48.796;2.396;2023-01-26T20:23:07;102315.66;;;6.99;65.80
62779;BME280;48821;48.796;2.396;2023-01-26T20:24:28;102314.81;;;7.00;65.69
62779;BME280;48821;48.796;2.396;2023-01-26T20:25:47;102315.69;;;7.04;66.25
62779;BME280;48821;48.796;2.396;2023-01-26T20:27:03;102320.06;;;7.05;65.58
62779;BME280;48821;48.796;2.396;2023-01-26T20:28:17;102312.19;;;7.02;65.96
62779;BME280;48821;48.796;2.396;2023-01-26T20:29:28;102308.72;;;7.03;65.92
62779;BME280;48821;48.796;2.396;2023-01-26T20:30:49;102315.69;;;7.04;66.07
62779;BME280;48821;48.796;2.396;2023-01-26T20:32:03;102327.03;;;7.04;66.13
62779;BME280;48821;48.796;2.396;2023-01-26T20:33:16;102320.91;;;7.04;65.79
62779;BME280;48821;48.796;2.396;2023-01-26T20:34:32;102320.91;;;7.04;65.87
62779;BME280;48821;48.796;2.396;2023-01-26T20:35:55;102327.91;;;7.05;65.60
62779;BME280;48821;48.796;2.396;2023-01-26T20:37:07;102325.31;;;7.08;66.11
62779;BME280;48821;48.796;2.396;2023-01-26T20:38:32;102312.22;;;7.05;65.66
62779;BME280;48821;48.796;2.396;2023-01-26T20:39:46;102320.06;;;7.06;65.86
62779;BME280;48821;48.796;2.396;2023-01-26T20:40:57;102322.72;;;7.08;65.98
62779;BME280;48821;48.796;2.396;2023-01-26T20:42:10;102323.56;;;7.07;65.79
62779;BME280;48821;48.796;2.396;2023-01-26T20:43:26;102323.56;;;7.07;65.89
62779;BME280;48821;48.796;2.396;2023-01-26T20:44:41;102319.22;;;7.06;65.46
62779;BME280;48821;48.796;2.396;2023-01-26T20:45:54;102319.22;;;7.06;65.98
62779;BME280;48821;48.796;2.396;2023-01-26T20:47:07;102323.53;;;7.04;65.75
62779;BME280;48821;48.796;2.396;2023-01-26T20:48:22;102320.91;;;7.04;65.73
62779;BME280;48821;48.796;2.396;2023-01-26T20:49:38;102315.69;;;7.04;65.70
62779;BME280;48821;48.796;2.396;2023-01-26T20:50:59;102320.06;;;7.05;65.83
62779;BME280;48821;48.796;2.396;2023-01-26T20:52:12;102329.63;;;7.03;65.47
62779;BME280;48821;48.796;2.396;2023-01-26T20:53:23;102325.28;;;7.05;66.03
62779;BME280;48821;48.796;2.396;2023-01-26T20:54:37;102327.03;;;7.04;66.02
62779;BME280;48821;48.796;2.396;2023-01-26T20:55:55;102324.44;;;7.06;65.81
62779;BME280;48821;48.796;2.396;2023-01-26T20:57:11;102315.69;;;7.04;65.95
62779;BME280;48821;48.796;2.396;2023-01-26T20:58:23;102318.34;;;7.05;65.84
62779;BME280;48821;48.796;2.396;2023-01-26T20:59:38;102315.72;;;7.05;65.66
62779;BME280;48821;48.796;2.396;2023-01-26T21:00:49;102320.94;;;7.07;65.78
62779;BME280;48821;48.796;2.396;2023-01-26T21:02:11;102318.34;;;7.05;65.93
62779;BME280;48821;48.796;2.396;2023-01-26T21:03:25;102325.31;;;7.08;65.81
62779;BME280;48821;48.796;2.396;2023-01-26T21:04:46;102312.25;;;7.08;65.73
62779;BME280;48821;48.796;2.396;2023-01-26T21:05:56;102309.59;;;7.05;65.62
62779;BME280;48821;48.796;2.396;2023-01-26T21:07:20;102313.06;;;7.04;65.79
62779;BME280;48821;48.796;2.396;2023-01-26T21:08:34;102313.94;;;7.03;65.73
62779;BME280;48821;48.796;2.396;2023-01-26T21:09:48;102307.84;;;7.01;65.72
62779;BME280;48821;48.796;2.396;2023-01-26T21:11:02;102313.06;;;7.02;65.56
62779;BME280;48821;48.796;2.396;2023-01-26T21:12:13;102311.31;;;7.00;65.86
62779;BME280;48821;48.796;2.396;2023-01-26T21:13:25;102307.81;;;6.99;65.68
62779;BME280;48821;48.796;2.396;2023-01-26T21:14:37;102302.59;;;6.99;65.38
62779;BME280;48821;48.796;2.396;2023-01-26T21:15:49;102310.44;;;6.97;65.19
62779;BME280;48821;48.796;2.396;2023-01-26T21:17:01;102299.97;;;6.96;65.27
62779;BME280;48821;48.796;2.396;2023-01-26T21:18:15;102318.28;;;6.97;65.88
62779;BME280;48821;48.796;2.396;2023-01-26T21:19:31;102311.28;;;6.96;65.63
62779;BME280;48821;48.796;2.396;2023-01-26T21:20:55;102303.44;;;6.93;65.46
62779;BME280;48821;48.796;2.396;2023-01-26T21:22:17;102306.94;;;6.95;65.55
62779;BME280;48821;48.796;2.396;2023-01-26T21:23:37;102320.88;;;6.97;65.85
62779;BME280;48821;48.796;2.396;2023-01-26T21:24:50;102311.28;;;6.96;65.30
62779;BME280;48821;48.796;2.396;2023-01-26T21:26:10;102306.06;;;6.98;65.55
62779;BME280;48821;48.796;2.396;2023-01-26T21:27:21;102313.03;;;6.97;65.30
62779;BME280;48821;48.796;2.396;2023-01-26T21:28:35;102312.19;;;6.98;65.51
62779;BME280;48821;48.796;2.396;2023-01-26T21:29:46;102310.41;;;6.94;65.34
62779;BME280;48821;48.796;2.396;2023-01-26T21:31:02;102311.28;;;6.95;65.32
62779;BME280;48821;48.796;2.396;2023-01-26T21:32:29;102310.41;;;6.94;65.45
62779;BME280;48821;48.796;2.396;2023-01-26T21:33:43;102313.00;;;6.93;65.65
62779;BME280;48821;48.796;2.396;2023-01-26T21:35:22;102305.16;;;6.91;65.21
62779;BME280;48821;48.796;2.396;2023-01-26T21:36:35;102304.25;;;6.88;65.33
62779;BME280;48821;48.796;2.396;2023-01-26T21:37:48;102293.78;;;6.89;65.50
62779;BME280;48821;48.796;2.396;2023-01-26T21:41:31;102295.56;;;6.89;65.82
62779;BME280;48821;48.796;2.396;2023-01-26T21:42:53;102297.28;;;6.90;65.42
62779;BME280;48821;48.796;2.396;2023-01-26T21:44:10;102292.03;;;6.85;66.09
62779;BME280;48821;48.796;2.396;2023-01-26T21:45:24;102301.63;;;6.89;65.71
62779;BME280;48821;48.796;2.396;2023-01-26T21:47:01;102305.16;;;6.91;65.91
62779;BME280;48821;48.796;2.396;2023-01-26T21:48:21;102299.09;;;6.94;65.67
62779;BME280;48821;48.796;2.396;2023-01-26T21:49:41;102297.31;;;6.93;65.68
62779;BME280;48821;48.796;2.396;2023-01-26T21:50:58;102303.41;;;6.90;65.72
62779;BME280;48821;48.796;2.396;2023-01-26T21:52:27;102299.06;;;6.91;65.74
62779;BME280;48821;48.796;2.396;2023-01-26T21:53:56;102302.56;;;6.91;65.90
62779;BME280;48821;48.796;2.396;2023-01-26T21:55:07;102294.69;;;6.90;65.97
62779;BME280;48821;48.796;2.396;2023-01-26T21:56:24;102299.94;;;6.91;65.50
62779;BME280;48821;48.796;2.396;2023-01-26T21:57:37;102300.81;;;6.93;66.15
62779;BME280;48821;48.796;2.396;2023-01-26T21:59:09;102295.56;;;6.90;65.71
62779;BME280;48821;48.796;2.396;2023-01-26T22:00:21;102297.31;;;6.93;65.87
62779;BME280;48821;48.796;2.396;2023-01-26T22:01:37;102300.81;;;6.93;65.52
62779;BME280;48821;48.796;2.396;2023-01-26T22:02:51;102293.81;;;6.92;65.69
62779;BME280;48821;48.796;2.396;2023-01-26T22:04:05;102293.81;;;6.91;65.76
62779;BME280;48821;48.796;2.396;2023-01-26T22:05:17;102290.34;;;6.90;65.72
62779;BME280;48821;48.796;2.396;2023-01-26T22:06:29;102298.16;;;6.92;65.86
62779;BME280;48821;48.796;2.396;2023-01-26T22:07:39;102299.94;;;6.91;66.18
62779;BME280;48821;48.796;2.396;2023-01-26T22:08:58;102288.59;;;6.91;66.17
62779;BME280;48821;48.796;2.396;2023-01-26T22:10:16;102291.25;;;6.94;65.56
62779;BME280;48821;48.796;2.396;2023-01-26T22:11:33;102288.59;;;6.92;65.46
62779;BME280;48821;48.796;2.396;2023-01-26T22:12:44;102275.50;;;6.89;66.04
62779;BME280;48821;48.796;2.396;2023-01-26T22:14:28;102281.59;;;6.90;65.71
62779;BME280;48821;48.796;2.396;2023-01-26T22:15:43;102292.94;;;6.92;66.09
62779;BME280;48821;48.796;2.396;2023-01-26T22:18:38;102293.81;;;6.92;65.68
62779;BME280;48821;48.796;2.396;2023-01-26T22:19:49;102284.25;;;6.91;66.01
62779;BME280;48821;48.796;2.396;2023-01-26T22:21:00;102284.25;;;6.94;65.89
62779;BME280;48821;48.796;2.396;2023-01-26T22:22:15;102290.34;;;6.95;66.07
62779;BME280;48821;48.796;2.396;2023-01-26T22:23:28;102286.88;;;6.94;65.84
62779;BME280;48821;48.796;2.396;2023-01-26T22:24:49;102285.09;;;6.92;65.83
62779;BME280;48821;48.796;2.396;2023-01-26T22:26:17;102284.28;;;6.97;66.37
62779;BME280;48821;48.796;2.396;2023-01-26T22:27:28;102290.41;;;6.98;66.06
62779;BME280;48821;48.796;2.396;2023-01-26T22:28:39;102286.03;;;6.98;66.25
62779;BME280;48821;48.796;2.396;2023-01-26T22:29:54;102282.53;;;7.00;65.93
62779;BME280;48821;48.796;2.396;2023-01-26T22:31:08;102272.97;;;7.00;66.05
62779;BME280;48821;48.796;2.396;2023-01-26T22:32:25;102279.97;;;7.01;66.00
62779;BME280;48821;48.796;2.396;2023-01-26T22:33:38;102279.09;;;7.01;65.78
62779;BME280;48821;48.796;2.396;2023-01-26T22:34:57;102281.69;;;7.01;66.09
62779;BME280;48821;48.796;2.396;2023-01-26T22:36:11;102272.97;;;7.00;66.15
62779;BME280;48821;48.796;2.396;2023-01-26T22:37:28;102273.81;;;6.99;65.99
62779;BME280;48821;48.796;2.396;2023-01-26T22:38:38;102275.59;;;7.02;65.76
62779;BME280;48821;48.796;2.396;2023-01-26T22:40:21;102275.59;;;7.02;65.71
62779;BME280;48821;48.796;2.396;2023-01-26T22:41:34;102279.09;;;7.01;65.91
62779;BME280;48821;48.796;2.396;2023-01-26T22:42:56;102275.59;;;6.98;65.87
62779;BME280;48821;48.796;2.396;2023-01-26T22:44:07;102278.19;;;6.98;66.36
62779;BME280;48821;48.796;2.396;2023-01-26T22:48:03;102276.47;;;7.01;66.03
62779;BME280;48821;48.796;2.396;2023-01-26T22:51:43;102279.97;;;7.01;65.67
62779;BME280;48821;48.796;2.396;2023-01-26T22:53:14;102276.44;;;6.99;65.96
62779;BME280;48821;48.796;2.396;2023-01-26T22:54:27;102281.69;;;7.01;65.95
62779;BME280;48821;48.796;2.396;2023-01-26T22:57:42;102281.72;;;7.07;65.93
62779;BME280;48821;48.796;2.396;2023-01-26T22:59:19;102279.13;;;7.07;66.18
62779;BME280;48821;48.796;2.396;2023-01-26T23:00:35;102275.66;;;7.08;66.05
62779;BME280;48821;48.796;2.396;2023-01-26T23:01:52;102273.88;;;7.07;65.74
62779;BME280;48821;48.796;2.396;2023-01-26T23:03:02;102279.13;;;7.07;65.76
62779;BME280;48821;48.796;2.396;2023-01-26T23:06:33;102273.00;;;7.06;65.81
62779;BME280;48821;48.796;2.396;2023-01-26T23:08:02;102273.03;;;7.09;66.32
62779;BME280;48821;48.796;2.396;2023-01-26T23:11:32;102271.31;;;7.13;66.14
62779;BME280;48821;48.796;2.396;2023-01-26T23:12:54;102270.44;;;7.14;66.15
62779;BME280;48821;48.796;2.396;2023-01-26T23:14:29;102274.81;;;7.15;65.91
62779;BME280;48821;48.796;2.396;2023-01-26T23:16:04;102271.31;;;7.13;65.94
62779;BME280;48821;48.796;2.396;2023-01-26T23:17:20;102272.19;;;7.14;65.84
62779;BME280;48821;48.796;2.396;2023-01-26T23:18:33;102267.81;;;7.14;66.18
62779;BME280;48821;48.796;2.396;2023-01-26T23:19:59;102274.78;;;7.12;65.72
62779;BME280;48821;48.796;2.396;2023-01-26T23:21:15;102273.06;;;7.13;65.93
62779;BME280;48821;48.796;2.396;2023-01-26T23:22:51;102264.31;;;7.12;65.61
62779;BME280;48821;48.796;2.396;2023-01-26T23:24:09;102275.66;;;7.11;65.83
62779;BME280;48821;48.796;2.396;2023-01-26T23:25:20;102270.41;;;7.09;65.89
62779;BME280;48821;48.796;2.396;2023-01-26T23:26:57;102266.06;;;7.08;65.75
62779;BME280;48821;48.796;2.396;2023-01-26T23:28:08;102270.44;;;7.14;65.66
62779;BME280;48821;48.796;2.396;2023-01-26T23:29:19;102260.84;;;7.10;65.96
62779;BME280;48821;48.796;2.396;2023-01-26T23:30:45;102265.25;;;7.16;66.16
62779;BME280;48821;48.796;2.396;2023-01-26T23:32:07;102262.59;;;7.13;66.03
62779;BME280;48821;48.796;2.396;2023-01-26T23:33:45;102257.38;;;7.11;66.01
62779;BME280;48821;48.796;2.396;2023-01-26T23:35:28;102264.31;;;7.14;65.98
62779;BME280;48821;48.796;2.396;2023-01-26T23:36:52;102261.75;;;7.15;65.98
62779;BME280;48821;48.796;2.396;2023-01-26T23:38:16;102263.47;;;7.16;65.70
62779;BME280;48821;48.796;2.396;2023-01-26T23:39:54;102266.97;;;7.17;65.68
62779;BME280;48821;48.796;2.396;2023-01-26T23:41:36;102267.88;;;7.20;65.62
62779;BME280;48821;48.796;2.396;2023-01-26T23:45:04;102265.25;;;7.20;65.82
62779;BME280;48821;48.796;2.396;2023-01-26T23:46:30;102260.88;;;7.19;65.42
62779;BME280;48821;48.796;2.396;2023-01-26T23:48:05;102256.50;;;7.15;65.56
62779;BME280;48821;48.796;2.396;2023-01-26T23:51:40;102259.19;;;7.23;65.83
62779;BME280;48821;48.796;2.396;2023-01-26T23:53:09;102254.78;;;7.24;65.83
62779;BME280;48821;48.796;2.396;2023-01-26T23:54:27;102251.31;;;7.25;65.46
62779;BME280;48821;48.796;2.396;2023-01-26T23:55:51;102256.56;;;7.25;65.53
62779;BME280;48821;48.796;2.396;2023-01-26T23:57:32;102255.66;;;7.21;65.38
62779;BME280;48821;48.796;2.396;2023-01-26T23:58:59;102248.69;;;7.22;65.06
